sensor_id;sensor_type;location;lat;lon;timestamp;P1;durP1;ratioP1;P2;durP2;ratioP2
17488;SDS011;8861;52.644;4.734;2022-09-09T00:02:16;8.03;;;6.23;;
17488;SDS011;8861;52.644;4.734;2022-09-09T00:04:46;10.93;;;6.67;;
17488;SDS011;8861;52.644;4.734;2022-09-09T00:07:27;7.80;;;5.87;;
17488;SDS011;8861;52.644;4.734;2022-09-09T00:10:06;10.20;;;6.17;;
17488;SDS011;8861;52.644;4.734;2022-09-09T00:12:42;8.03;;;5.20;;
17488;SDS011;8861;52.644;4.734;2022-09-09T00:15:17;9.03;;;5.63;;
17488;SDS011;8861;52.644;4.734;2022-09-09T00:17:47;6.57;;;5.17;;
17488;SDS011;8861;52.644;4.734;2022-09-09T00:20:23;7.80;;;5.33;;
17488;SDS011;8861;52.644;4.734;2022-09-09T00:22:57;5.60;;;5.10;;
17488;SDS011;8861;52.644;4.734;2022-09-09T00:25:32;8.43;;;6.23;;
17488;SDS011;8861;52.644;4.734;2022-09-09T00:28:02;9.97;;;5.90;;
17488;SDS011;8861;52.644;4.734;2022-09-09T00:30:34;9.73;;;6.30;;
17488;SDS011;8861;52.644;4.734;2022-09-09T00:33:08;8.37;;;5.93;;
17488;SDS011;8861;52.644;4.734;2022-09-09T00:35:42;10.10;;;6.03;;
17488;SDS011;8861;52.644;4.734;2022-09-09T00:38:13;9.50;;;6.47;;
17488;SDS011;8861;52.644;4.734;2022-09-09T00:40:43;9.50;;;6.17;;
17488;SDS011;8861;52.644;4.734;2022-09-09T00:43:21;8.63;;;6.53;;
17488;SDS011;8861;52.644;4.734;2022-09-09T00:45:59;7.83;;;5.83;;
17488;SDS011;8861;52.644;4.734;2022-09-09T00:48:50;11.47;;;6.60;;
17488;SDS011;8861;52.644;4.734;2022-09-09T00:51:28;10.23;;;7.30;;
17488;SDS011;8861;52.644;4.734;2022-09-09T00:54:08;11.40;;;7.50;;
17488;SDS011;8861;52.644;4.734;2022-09-09T00:56:45;7.37;;;6.20;;
17488;SDS011;8861;52.644;4.734;2022-09-09T00:59:22;11.27;;;6.77;;
17488;SDS011;8861;52.644;4.734;2022-09-09T01:01:54;9.00;;;6.60;;
17488;SDS011;8861;52.644;4.734;2022-09-09T01:04:23;10.00;;;7.57;;
17488;SDS011;8861;52.644;4.734;2022-09-09T01:06:58;9.23;;;7.20;;
17488;SDS011;8861;52.644;4.734;2022-09-09T01:09:31;9.33;;;6.73;;
17488;SDS011;8861;52.644;4.734;2022-09-09T01:12:07;10.30;;;6.83;;
17488;SDS011;8861;52.644;4.734;2022-09-09T01:14:41;8.63;;;6.70;;
17488;SDS011;8861;52.644;4.734;2022-09-09T01:17:14;10.40;;;7.27;;
17488;SDS011;8861;52.644;4.734;2022-09-09T01:19:50;8.80;;;7.30;;
17488;SDS011;8861;52.644;4.734;2022-09-09T01:22:28;12.40;;;7.50;;
17488;SDS011;8861;52.644;4.734;2022-09-09T01:27:54;10.37;;;7.63;;
17488;SDS011;8861;52.644;4.734;2022-09-09T01:30:23;12.90;;;8.20;;
17488;SDS011;8861;52.644;4.734;2022-09-09T01:32:53;11.97;;;8.53;;
17488;SDS011;8861;52.644;4.734;2022-09-09T01:35:27;12.63;;;8.37;;
17488;SDS011;8861;52.644;4.734;2022-09-09T01:38:01;13.13;;;9.60;;
17488;SDS011;8861;52.644;4.734;2022-09-09T01:40:28;12.87;;;8.73;;
17488;SDS011;8861;52.644;4.734;2022-09-09T01:42:56;10.60;;;8.30;;
17488;SDS011;8861;52.644;4.734;2022-09-09T01:45:23;11.80;;;8.47;;
17488;SDS011;8861;52.644;4.734;2022-09-09T01:47:51;10.87;;;7.73;;
17488;SDS011;8861;52.644;4.734;2022-09-09T01:50:19;13.37;;;8.43;;
17488;SDS011;8861;52.644;4.734;2022-09-09T01:52:47;13.53;;;8.83;;
17488;SDS011;8861;52.644;4.734;2022-09-09T01:55:17;12.57;;;9.17;;
17488;SDS011;8861;52.644;4.734;2022-09-09T01:57:50;11.97;;;8.70;;
17488;SDS011;8861;52.644;4.734;2022-09-09T02:00:23;12.30;;;9.53;;
17488;SDS011;8861;52.644;4.734;2022-09-09T02:02:53;12.97;;;9.30;;
17488;SDS011;8861;52.644;4.734;2022-09-09T02:05:30;13.97;;;9.47;;
17488;SDS011;8861;52.644;4.734;2022-09-09T02:08:04;15.37;;;10.47;;
17488;SDS011;8861;52.644;4.734;2022-09-09T02:10:34;12.23;;;9.07;;
17488;SDS011;8861;52.644;4.734;2022-09-09T02:13:07;12.87;;;9.43;;
17488;SDS011;8861;52.644;4.734;2022-09-09T02:15:40;12.17;;;8.90;;
17488;SDS011;8861;52.644;4.734;2022-09-09T02:18:13;12.90;;;9.23;;
17488;SDS011;8861;52.644;4.734;2022-09-09T02:20:44;14.40;;;10.70;;
17488;SDS011;8861;52.644;4.734;2022-09-09T02:23:11;17.93;;;11.87;;
17488;SDS011;8861;52.644;4.734;2022-09-09T02:25:40;18.60;;;12.60;;
17488;SDS011;8861;52.644;4.734;2022-09-09T02:28:09;14.67;;;11.33;;
17488;SDS011;8861;52.644;4.734;2022-09-09T02:30:40;17.53;;;11.20;;
17488;SDS011;8861;52.644;4.734;2022-09-09T02:33:08;17.37;;;11.70;;
17488;SDS011;8861;52.644;4.734;2022-09-09T02:35:37;14.07;;;10.70;;
17488;SDS011;8861;52.644;4.734;2022-09-09T02:38:06;17.20;;;12.63;;
17488;SDS011;8861;52.644;4.734;2022-09-09T02:40:36;17.27;;;12.70;;
17488;SDS011;8861;52.644;4.734;2022-09-09T02:43:03;19.13;;;12.27;;
17488;SDS011;8861;52.644;4.734;2022-09-09T02:45:32;18.57;;;13.17;;
17488;SDS011;8861;52.644;4.734;2022-09-09T02:48:09;18.13;;;14.50;;
17488;SDS011;8861;52.644;4.734;2022-09-09T02:50:41;20.43;;;14.00;;
17488;SDS011;8861;52.644;4.734;2022-09-09T02:53:16;19.53;;;14.07;;
17488;SDS011;8861;52.644;4.734;2022-09-09T02:55:46;20.47;;;14.67;;
17488;SDS011;8861;52.644;4.734;2022-09-09T02:58:15;23.77;;;15.70;;
17488;SDS011;8861;52.644;4.734;2022-09-09T03:00:44;21.47;;;15.10;;
17488;SDS011;8861;52.644;4.734;2022-09-09T03:03:14;24.40;;;17.10;;
17488;SDS011;8861;52.644;4.734;2022-09-09T03:05:42;24.33;;;15.97;;
17488;SDS011;8861;52.644;4.734;2022-09-09T03:08:09;22.47;;;15.97;;
17488;SDS011;8861;52.644;4.734;2022-09-09T03:10:36;22.27;;;15.33;;
17488;SDS011;8861;52.644;4.734;2022-09-09T03:13:03;20.43;;;14.47;;
17488;SDS011;8861;52.644;4.734;2022-09-09T03:15:30;20.03;;;14.10;;
17488;SDS011;8861;52.644;4.734;2022-09-09T03:17:57;20.37;;;14.53;;
17488;SDS011;8861;52.644;4.734;2022-09-09T03:20:27;20.43;;;14.40;;
17488;SDS011;8861;52.644;4.734;2022-09-09T03:22:55;21.27;;;14.67;;
17488;SDS011;8861;52.644;4.734;2022-09-09T03:25:23;18.23;;;13.40;;
17488;SDS011;8861;52.644;4.734;2022-09-09T03:27:51;21.10;;;14.63;;
17488;SDS011;8861;52.644;4.734;2022-09-09T03:30:19;22.00;;;14.47;;
17488;SDS011;8861;52.644;4.734;2022-09-09T03:32:46;18.93;;;14.43;;
17488;SDS011;8861;52.644;4.734;2022-09-09T03:35:13;20.90;;;14.90;;
17488;SDS011;8861;52.644;4.734;2022-09-09T03:37:42;23.27;;;17.33;;
17488;SDS011;8861;52.644;4.734;2022-09-09T03:40:09;22.00;;;16.10;;
17488;SDS011;8861;52.644;4.734;2022-09-09T03:42:37;19.30;;;15.30;;
17488;SDS011;8861;52.644;4.734;2022-09-09T03:45:05;20.67;;;15.63;;
17488;SDS011;8861;52.644;4.734;2022-09-09T03:47:34;19.90;;;14.93;;
17488;SDS011;8861;52.644;4.734;2022-09-09T03:50:01;21.40;;;15.03;;
17488;SDS011;8861;52.644;4.734;2022-09-09T03:52:29;20.57;;;14.90;;
17488;SDS011;8861;52.644;4.734;2022-09-09T03:54:57;21.27;;;14.60;;
17488;SDS011;8861;52.644;4.734;2022-09-09T03:57:24;24.30;;;16.73;;
17488;SDS011;8861;52.644;4.734;2022-09-09T03:59:51;19.30;;;13.93;;
17488;SDS011;8861;52.644;4.734;2022-09-09T04:02:18;16.40;;;13.73;;
17488;SDS011;8861;52.644;4.734;2022-09-09T04:04:45;17.67;;;13.77;;
17488;SDS011;8861;52.644;4.734;2022-09-09T04:07:11;19.23;;;14.53;;
17488;SDS011;8861;52.644;4.734;2022-09-09T04:09:39;19.57;;;14.07;;
17488;SDS011;8861;52.644;4.734;2022-09-09T04:12:07;19.97;;;15.43;;
17488;SDS011;8861;52.644;4.734;2022-09-09T04:14:36;20.87;;;14.90;;
17488;SDS011;8861;52.644;4.734;2022-09-09T04:17:03;21.37;;;16.23;;
17488;SDS011;8861;52.644;4.734;2022-09-09T04:19:31;19.70;;;15.37;;
17488;SDS011;8861;52.644;4.734;2022-09-09T04:21:58;19.20;;;14.30;;
17488;SDS011;8861;52.644;4.734;2022-09-09T04:24:25;19.70;;;14.20;;
17488;SDS011;8861;52.644;4.734;2022-09-09T04:26:54;18.03;;;13.70;;
17488;SDS011;8861;52.644;4.734;2022-09-09T04:29:22;17.50;;;13.90;;
17488;SDS011;8861;52.644;4.734;2022-09-09T04:31:49;18.53;;;12.67;;
17488;SDS011;8861;52.644;4.734;2022-09-09T04:34:16;21.43;;;13.30;;
17488;SDS011;8861;52.644;4.734;2022-09-09T04:36:43;18.00;;;12.50;;
17488;SDS011;8861;52.644;4.734;2022-09-09T04:39:10;19.03;;;13.10;;
17488;SDS011;8861;52.644;4.734;2022-09-09T04:41:37;20.33;;;13.83;;
17488;SDS011;8861;52.644;4.734;2022-09-09T04:44:04;15.67;;;12.00;;
17488;SDS011;8861;52.644;4.734;2022-09-09T04:46:32;16.13;;;11.13;;
17488;SDS011;8861;52.644;4.734;2022-09-09T04:49:00;13.80;;;11.47;;
17488;SDS011;8861;52.644;4.734;2022-09-09T04:51:26;16.37;;;11.07;;
17488;SDS011;8861;52.644;4.734;2022-09-09T04:53:56;14.47;;;9.77;;
17488;SDS011;8861;52.644;4.734;2022-09-09T04:56:23;13.20;;;10.27;;
17488;SDS011;8861;52.644;4.734;2022-09-09T04:58:51;13.83;;;10.07;;
17488;SDS011;8861;52.644;4.734;2022-09-09T05:01:19;15.97;;;11.10;;
17488;SDS011;8861;52.644;4.734;2022-09-09T05:03:50;14.97;;;10.90;;
17488;SDS011;8861;52.644;4.734;2022-09-09T05:06:18;14.07;;;10.17;;
17488;SDS011;8861;52.644;4.734;2022-09-09T05:08:47;20.00;;;12.70;;
17488;SDS011;8861;52.644;4.734;2022-09-09T05:11:15;17.60;;;12.10;;
17488;SDS011;8861;52.644;4.734;2022-09-09T05:13:43;19.57;;;13.40;;
17488;SDS011;8861;52.644;4.734;2022-09-09T05:16:10;19.50;;;12.83;;
17488;SDS011;8861;52.644;4.734;2022-09-09T05:18:37;17.70;;;12.30;;
17488;SDS011;8861;52.644;4.734;2022-09-09T05:21:06;17.47;;;12.93;;
17488;SDS011;8861;52.644;4.734;2022-09-09T05:23:33;18.67;;;12.20;;
17488;SDS011;8861;52.644;4.734;2022-09-09T05:26:00;18.90;;;12.90;;
17488;SDS011;8861;52.644;4.734;2022-09-09T05:28:28;20.03;;;13.10;;
17488;SDS011;8861;52.644;4.734;2022-09-09T05:30:56;16.87;;;12.27;;
17488;SDS011;8861;52.644;4.734;2022-09-09T05:33:23;18.33;;;11.63;;
17488;SDS011;8861;52.644;4.734;2022-09-09T05:35:55;14.90;;;10.63;;
17488;SDS011;8861;52.644;4.734;2022-09-09T05:38:27;15.80;;;11.00;;
17488;SDS011;8861;52.644;4.734;2022-09-09T05:40:55;15.37;;;10.57;;
17488;SDS011;8861;52.644;4.734;2022-09-09T05:43:22;16.70;;;10.93;;
17488;SDS011;8861;52.644;4.734;2022-09-09T05:45:58;17.57;;;10.30;;
17488;SDS011;8861;52.644;4.734;2022-09-09T05:48:27;17.13;;;10.33;;
17488;SDS011;8861;52.644;4.734;2022-09-09T05:50:55;12.60;;;8.70;;
17488;SDS011;8861;52.644;4.734;2022-09-09T05:53:22;14.43;;;8.93;;
17488;SDS011;8861;52.644;4.734;2022-09-09T05:55:50;13.90;;;8.90;;
17488;SDS011;8861;52.644;4.734;2022-09-09T05:58:24;14.53;;;8.67;;
17488;SDS011;8861;52.644;4.734;2022-09-09T06:00:51;12.27;;;7.80;;
17488;SDS011;8861;52.644;4.734;2022-09-09T06:03:19;10.43;;;7.60;;
17488;SDS011;8861;52.644;4.734;2022-09-09T06:05:56;13.87;;;7.70;;
17488;SDS011;8861;52.644;4.734;2022-09-09T06:08:23;8.83;;;6.70;;
17488;SDS011;8861;52.644;4.734;2022-09-09T06:10:52;13.80;;;7.00;;
17488;SDS011;8861;52.644;4.734;2022-09-09T06:13:19;8.00;;;6.40;;
17488;SDS011;8861;52.644;4.734;2022-09-09T06:15:49;10.47;;;6.70;;
17488;SDS011;8861;52.644;4.734;2022-09-09T06:18:17;11.30;;;6.33;;
17488;SDS011;8861;52.644;4.734;2022-09-09T06:20:52;10.50;;;6.30;;
17488;SDS011;8861;52.644;4.734;2022-09-09T06:23:20;10.50;;;6.23;;
17488;SDS011;8861;52.644;4.734;2022-09-09T06:25:46;8.80;;;6.10;;
17488;SDS011;8861;52.644;4.734;2022-09-09T06:28:15;9.70;;;5.93;;
17488;SDS011;8861;52.644;4.734;2022-09-09T06:30:42;10.13;;;5.70;;
17488;SDS011;8861;52.644;4.734;2022-09-09T06:33:09;9.23;;;5.20;;
17488;SDS011;8861;52.644;4.734;2022-09-09T06:35:36;8.90;;;5.50;;
17488;SDS011;8861;52.644;4.734;2022-09-09T06:38:03;10.07;;;5.20;;
17488;SDS011;8861;52.644;4.734;2022-09-09T06:40:30;7.70;;;4.67;;
17488;SDS011;8861;52.644;4.734;2022-09-09T06:42:59;9.17;;;5.20;;
17488;SDS011;8861;52.644;4.734;2022-09-09T06:45:28;9.27;;;5.03;;
17488;SDS011;8861;52.644;4.734;2022-09-09T06:47:56;9.43;;;4.60;;
17488;SDS011;8861;52.644;4.734;2022-09-09T06:50:23;8.67;;;5.30;;
17488;SDS011;8861;52.644;4.734;2022-09-09T06:52:50;12.70;;;6.47;;
17488;SDS011;8861;52.644;4.734;2022-09-09T06:55:17;9.03;;;5.30;;
17488;SDS011;8861;52.644;4.734;2022-09-09T06:57:44;12.00;;;6.07;;
17488;SDS011;8861;52.644;4.734;2022-09-09T07:00:11;9.37;;;4.97;;
17488;SDS011;8861;52.644;4.734;2022-09-09T07:02:41;6.67;;;4.50;;
17488;SDS011;8861;52.644;4.734;2022-09-09T07:05:08;9.57;;;4.77;;
17488;SDS011;8861;52.644;4.734;2022-09-09T07:07:35;6.97;;;4.40;;
17488;SDS011;8861;52.644;4.734;2022-09-09T07:10:03;7.03;;;4.17;;
17488;SDS011;8861;52.644;4.734;2022-09-09T07:12:30;10.23;;;4.33;;
17488;SDS011;8861;52.644;4.734;2022-09-09T07:14:57;6.97;;;4.53;;
17488;SDS011;8861;52.644;4.734;2022-09-09T07:17:24;10.23;;;5.90;;
17488;SDS011;8861;52.644;4.734;2022-09-09T07:19:52;9.93;;;5.03;;
17488;SDS011;8861;52.644;4.734;2022-09-09T07:22:19;11.40;;;5.70;;
17488;SDS011;8861;52.644;4.734;2022-09-09T07:24:46;10.70;;;6.03;;
17488;SDS011;8861;52.644;4.734;2022-09-09T07:27:14;11.13;;;7.40;;
17488;SDS011;8861;52.644;4.734;2022-09-09T07:29:41;11.57;;;6.90;;
17488;SDS011;8861;52.644;4.734;2022-09-09T07:32:08;13.07;;;7.60;;
17488;SDS011;8861;52.644;4.734;2022-09-09T07:34:35;8.63;;;6.67;;
17488;SDS011;8861;52.644;4.734;2022-09-09T07:37:03;18.53;;;10.80;;
17488;SDS011;8861;52.644;4.734;2022-09-09T07:39:30;14.87;;;10.30;;
17488;SDS011;8861;52.644;4.734;2022-09-09T07:41:57;13.60;;;10.53;;
17488;SDS011;8861;52.644;4.734;2022-09-09T07:44:24;16.43;;;10.50;;
17488;SDS011;8861;52.644;4.734;2022-09-09T07:46:51;16.43;;;11.13;;
17488;SDS011;8861;52.644;4.734;2022-09-09T07:49:19;15.00;;;10.43;;
17488;SDS011;8861;52.644;4.734;2022-09-09T07:51:46;14.47;;;10.00;;
17488;SDS011;8861;52.644;4.734;2022-09-09T07:54:16;15.73;;;10.63;;
17488;SDS011;8861;52.644;4.734;2022-09-09T07:56:45;13.33;;;9.60;;
17488;SDS011;8861;52.644;4.734;2022-09-09T07:59:12;15.93;;;11.03;;
17488;SDS011;8861;52.644;4.734;2022-09-09T08:01:40;14.17;;;10.03;;
17488;SDS011;8861;52.644;4.734;2022-09-09T08:04:10;12.93;;;10.10;;
17488;SDS011;8861;52.644;4.734;2022-09-09T08:06:40;12.37;;;9.53;;
17488;SDS011;8861;52.644;4.734;2022-09-09T08:09:09;12.13;;;9.60;;
17488;SDS011;8861;52.644;4.734;2022-09-09T08:11:38;12.23;;;9.50;;
17488;SDS011;8861;52.644;4.734;2022-09-09T08:14:05;13.63;;;9.93;;
17488;SDS011;8861;52.644;4.734;2022-09-09T08:16:34;12.37;;;9.33;;
17488;SDS011;8861;52.644;4.734;2022-09-09T08:19:03;11.27;;;9.10;;
17488;SDS011;8861;52.644;4.734;2022-09-09T08:21:32;12.23;;;9.33;;
17488;SDS011;8861;52.644;4.734;2022-09-09T08:24:02;11.83;;;8.93;;
17488;SDS011;8861;52.644;4.734;2022-09-09T08:26:31;12.10;;;8.70;;
17488;SDS011;8861;52.644;4.734;2022-09-09T08:29:02;10.00;;;8.67;;
17488;SDS011;8861;52.644;4.734;2022-09-09T08:31:31;9.87;;;7.70;;
17488;SDS011;8861;52.644;4.734;2022-09-09T08:33:59;13.23;;;8.40;;
17488;SDS011;8861;52.644;4.734;2022-09-09T08:36:28;15.73;;;8.40;;
17488;SDS011;8861;52.644;4.734;2022-09-09T08:38:58;10.77;;;7.60;;
17488;SDS011;8861;52.644;4.734;2022-09-09T08:41:39;11.10;;;7.80;;
17488;SDS011;8861;52.644;4.734;2022-09-09T08:44:28;10.27;;;7.03;;
17488;SDS011;8861;52.644;4.734;2022-09-09T08:47:06;10.00;;;6.70;;
17488;SDS011;8861;52.644;4.734;2022-09-09T08:49:45;10.27;;;7.37;;
17488;SDS011;8861;52.644;4.734;2022-09-09T08:52:21;11.80;;;6.97;;
17488;SDS011;8861;52.644;4.734;2022-09-09T08:54:52;13.10;;;7.73;;
17488;SDS011;8861;52.644;4.734;2022-09-09T08:57:23;11.03;;;7.17;;
17488;SDS011;8861;52.644;4.734;2022-09-09T08:59:54;9.87;;;7.07;;
17488;SDS011;8861;52.644;4.734;2022-09-09T09:02:23;8.87;;;6.27;;
17488;SDS011;8861;52.644;4.734;2022-09-09T09:04:56;9.77;;;6.43;;
17488;SDS011;8861;52.644;4.734;2022-09-09T09:07:37;10.77;;;6.77;;
17488;SDS011;8861;52.644;4.734;2022-09-09T09:10:21;9.37;;;6.60;;
17488;SDS011;8861;52.644;4.734;2022-09-09T09:12:59;10.93;;;6.87;;
17488;SDS011;8861;52.644;4.734;2022-09-09T09:15:29;9.53;;;6.03;;
17488;SDS011;8861;52.644;4.734;2022-09-09T09:18:02;13.40;;;7.30;;
17488;SDS011;8861;52.644;4.734;2022-09-09T09:20:30;9.47;;;6.47;;
17488;SDS011;8861;52.644;4.734;2022-09-09T09:23:06;11.90;;;6.90;;
17488;SDS011;8861;52.644;4.734;2022-09-09T09:25:42;9.73;;;6.60;;
17488;SDS011;8861;52.644;4.734;2022-09-09T09:28:12;10.70;;;6.63;;
17488;SDS011;8861;52.644;4.734;2022-09-09T09:30:46;11.03;;;6.17;;
17488;SDS011;8861;52.644;4.734;2022-09-09T09:33:18;8.90;;;5.97;;
17488;SDS011;8861;52.644;4.734;2022-09-09T09:35:50;8.53;;;5.93;;
17488;SDS011;8861;52.644;4.734;2022-09-09T09:38:19;11.13;;;6.57;;
17488;SDS011;8861;52.644;4.734;2022-09-09T09:40:48;9.53;;;6.20;;
17488;SDS011;8861;52.644;4.734;2022-09-09T09:43:18;7.30;;;5.87;;
17488;SDS011;8861;52.644;4.734;2022-09-09T09:45:49;8.10;;;5.90;;
17488;SDS011;8861;52.644;4.734;2022-09-09T09:48:16;10.10;;;6.13;;
17488;SDS011;8861;52.644;4.734;2022-09-09T09:50:46;8.53;;;5.70;;
17488;SDS011;8861;52.644;4.734;2022-09-09T09:53:23;10.47;;;6.07;;
17488;SDS011;8861;52.644;4.734;2022-09-09T09:55:56;11.90;;;6.70;;
17488;SDS011;8861;52.644;4.734;2022-09-09T09:58:25;8.50;;;5.90;;
17488;SDS011;8861;52.644;4.734;2022-09-09T10:00:56;11.60;;;6.50;;
17488;SDS011;8861;52.644;4.734;2022-09-09T10:03:25;12.30;;;6.10;;
17488;SDS011;8861;52.644;4.734;2022-09-09T10:05:54;8.83;;;6.10;;
17488;SDS011;8861;52.644;4.734;2022-09-09T10:08:23;8.90;;;5.93;;
17488;SDS011;8861;52.644;4.734;2022-09-09T10:11:02;10.47;;;6.27;;
17488;SDS011;8861;52.644;4.734;2022-09-09T10:13:44;8.27;;;5.90;;
17488;SDS011;8861;52.644;4.734;2022-09-09T10:16:24;8.03;;;5.13;;
17488;SDS011;8861;52.644;4.734;2022-09-09T10:19:05;9.17;;;5.80;;
17488;SDS011;8861;52.644;4.734;2022-09-09T10:21:50;8.87;;;5.97;;
17488;SDS011;8861;52.644;4.734;2022-09-09T10:24:42;10.53;;;6.07;;
17488;SDS011;8861;52.644;4.734;2022-09-09T10:27:38;10.43;;;6.00;;
17488;SDS011;8861;52.644;4.734;2022-09-09T10:30:14;10.83;;;5.50;;
17488;SDS011;8861;52.644;4.734;2022-09-09T10:32:49;10.07;;;5.30;;
17488;SDS011;8861;52.644;4.734;2022-09-09T10:35:25;7.03;;;5.40;;
17488;SDS011;8861;52.644;4.734;2022-09-09T10:40:43;9.37;;;5.33;;
17488;SDS011;8861;52.644;4.734;2022-09-09T10:43:28;8.63;;;5.17;;
17488;SDS011;8861;52.644;4.734;2022-09-09T10:46:10;8.07;;;5.17;;
17488;SDS011;8861;52.644;4.734;2022-09-09T10:48:50;7.57;;;4.67;;
17488;SDS011;8861;52.644;4.734;2022-09-09T10:51:33;8.00;;;5.27;;
17488;SDS011;8861;52.644;4.734;2022-09-09T10:54:09;8.77;;;4.97;;
17488;SDS011;8861;52.644;4.734;2022-09-09T10:56:52;8.60;;;4.93;;
17488;SDS011;8861;52.644;4.734;2022-09-09T10:59:24;6.27;;;4.73;;
17488;SDS011;8861;52.644;4.734;2022-09-09T11:01:53;9.27;;;5.20;;
17488;SDS011;8861;52.644;4.734;2022-09-09T11:04:27;8.70;;;4.97;;
17488;SDS011;8861;52.644;4.734;2022-09-09T11:06:59;7.63;;;4.97;;
17488;SDS011;8861;52.644;4.734;2022-09-09T11:09:32;7.97;;;5.00;;
17488;SDS011;8861;52.644;4.734;2022-09-09T11:12:04;10.60;;;5.30;;
17488;SDS011;8861;52.644;4.734;2022-09-09T11:14:39;6.20;;;4.17;;
17488;SDS011;8861;52.644;4.734;2022-09-09T11:17:10;9.07;;;4.90;;
17488;SDS011;8861;52.644;4.734;2022-09-09T11:19:43;7.13;;;4.03;;
17488;SDS011;8861;52.644;4.734;2022-09-09T11:22:15;7.33;;;4.40;;
17488;SDS011;8861;52.644;4.734;2022-09-09T11:24:49;7.30;;;4.13;;
17488;SDS011;8861;52.644;4.734;2022-09-09T11:27:20;9.07;;;4.10;;
17488;SDS011;8861;52.644;4.734;2022-09-09T11:32:51;7.60;;;3.87;;
17488;SDS011;8861;52.644;4.734;2022-09-09T11:35:38;6.63;;;4.00;;
17488;SDS011;8861;52.644;4.734;2022-09-09T11:38:18;6.40;;;3.37;;
17488;SDS011;8861;52.644;4.734;2022-09-09T11:40:54;5.80;;;3.57;;
17488;SDS011;8861;52.644;4.734;2022-09-09T11:43:25;6.60;;;3.80;;
17488;SDS011;8861;52.644;4.734;2022-09-09T11:45:57;6.13;;;3.70;;
17488;SDS011;8861;52.644;4.734;2022-09-09T11:48:29;6.07;;;3.80;;
17488;SDS011;8861;52.644;4.734;2022-09-09T11:51:03;6.37;;;3.43;;
17488;SDS011;8861;52.644;4.734;2022-09-09T11:53:32;7.37;;;3.67;;
17488;SDS011;8861;52.644;4.734;2022-09-09T11:56:05;5.63;;;3.30;;
17488;SDS011;8861;52.644;4.734;2022-09-09T11:58:44;7.00;;;3.40;;
17488;SDS011;8861;52.644;4.734;2022-09-09T12:01:27;7.17;;;3.70;;
17488;SDS011;8861;52.644;4.734;2022-09-09T12:04:09;8.07;;;4.37;;
17488;SDS011;8861;52.644;4.734;2022-09-09T12:06:57;9.87;;;5.23;;
17488;SDS011;8861;52.644;4.734;2022-09-09T12:09:29;7.00;;;5.47;;
17488;SDS011;8861;52.644;4.734;2022-09-09T12:12:06;8.10;;;5.40;;
17488;SDS011;8861;52.644;4.734;2022-09-09T12:14:54;11.30;;;6.13;;
17488;SDS011;8861;52.644;4.734;2022-09-09T12:17:24;8.40;;;6.33;;
17488;SDS011;8861;52.644;4.734;2022-09-09T12:19:59;11.40;;;6.67;;
17488;SDS011;8861;52.644;4.734;2022-09-09T12:22:33;10.00;;;6.10;;
17488;SDS011;8861;52.644;4.734;2022-09-09T12:25:08;8.33;;;5.60;;
17488;SDS011;8861;52.644;4.734;2022-09-09T12:27:46;8.97;;;4.93;;
17488;SDS011;8861;52.644;4.734;2022-09-09T12:30:28;6.53;;;5.00;;
17488;SDS011;8861;52.644;4.734;2022-09-09T12:33:02;6.87;;;4.60;;
17488;SDS011;8861;52.644;4.734;2022-09-09T12:35:34;10.27;;;4.90;;
17488;SDS011;8861;52.644;4.734;2022-09-09T12:38:05;7.43;;;4.77;;
17488;SDS011;8861;52.644;4.734;2022-09-09T12:40:36;6.90;;;4.37;;
17488;SDS011;8861;52.644;4.734;2022-09-09T12:43:15;4.80;;;3.77;;
17488;SDS011;8861;52.644;4.734;2022-09-09T12:45:44;6.73;;;3.80;;
17488;SDS011;8861;52.644;4.734;2022-09-09T12:48:14;6.50;;;3.77;;
17488;SDS011;8861;52.644;4.734;2022-09-09T12:50:45;7.47;;;3.60;;
17488;SDS011;8861;52.644;4.734;2022-09-09T12:53:18;6.53;;;4.13;;
17488;SDS011;8861;52.644;4.734;2022-09-09T12:55:49;5.67;;;3.53;;
17488;SDS011;8861;52.644;4.734;2022-09-09T12:58:18;5.57;;;3.77;;
17488;SDS011;8861;52.644;4.734;2022-09-09T13:00:48;7.73;;;3.70;;
17488;SDS011;8861;52.644;4.734;2022-09-09T13:03:17;6.43;;;3.67;;
17488;SDS011;8861;52.644;4.734;2022-09-09T13:05:46;4.97;;;3.50;;
17488;SDS011;8861;52.644;4.734;2022-09-09T13:08:13;4.97;;;3.40;;
17488;SDS011;8861;52.644;4.734;2022-09-09T13:10:46;4.90;;;3.60;;
17488;SDS011;8861;52.644;4.734;2022-09-09T13:13:20;5.17;;;3.43;;
17488;SDS011;8861;52.644;4.734;2022-09-09T13:15:49;4.43;;;3.27;;
17488;SDS011;8861;52.644;4.734;2022-09-09T13:18:20;6.73;;;2.90;;
17488;SDS011;8861;52.644;4.734;2022-09-09T13:20:48;5.10;;;3.00;;
17488;SDS011;8861;52.644;4.734;2022-09-09T13:23:18;3.57;;;2.60;;
17488;SDS011;8861;52.644;4.734;2022-09-09T13:25:53;5.13;;;2.50;;
17488;SDS011;8861;52.644;4.734;2022-09-09T13:28:22;5.40;;;2.20;;
17488;SDS011;8861;52.644;4.734;2022-09-09T13:30:56;4.37;;;2.57;;
17488;SDS011;8861;52.644;4.734;2022-09-09T13:33:33;4.40;;;3.03;;
17488;SDS011;8861;52.644;4.734;2022-09-09T13:36:02;4.83;;;3.33;;
17488;SDS011;8861;52.644;4.734;2022-09-09T13:38:33;4.10;;;3.00;;
17488;SDS011;8861;52.644;4.734;2022-09-09T13:41:03;3.57;;;3.00;;
17488;SDS011;8861;52.644;4.734;2022-09-09T13:43:34;5.03;;;3.10;;
17488;SDS011;8861;52.644;4.734;2022-09-09T13:46:04;4.83;;;3.23;;
17488;SDS011;8861;52.644;4.734;2022-09-09T13:48:53;3.73;;;3.00;;
17488;SDS011;8861;52.644;4.734;2022-09-09T13:51:21;5.40;;;3.20;;
17488;SDS011;8861;52.644;4.734;2022-09-09T13:53:58;5.27;;;3.47;;
17488;SDS011;8861;52.644;4.734;2022-09-09T13:56:25;5.27;;;3.80;;
17488;SDS011;8861;52.644;4.734;2022-09-09T13:58:52;5.30;;;3.43;;
17488;SDS011;8861;52.644;4.734;2022-09-09T14:01:19;4.57;;;3.40;;
17488;SDS011;8861;52.644;4.734;2022-09-09T14:03:46;4.70;;;3.20;;
17488;SDS011;8861;52.644;4.734;2022-09-09T14:06:13;4.73;;;3.87;;
17488;SDS011;8861;52.644;4.734;2022-09-09T14:08:39;4.70;;;3.27;;
17488;SDS011;8861;52.644;4.734;2022-09-09T14:11:08;4.67;;;3.80;;
17488;SDS011;8861;52.644;4.734;2022-09-09T14:13:38;6.23;;;4.20;;
17488;SDS011;8861;52.644;4.734;2022-09-09T14:16:05;5.30;;;4.40;;
17488;SDS011;8861;52.644;4.734;2022-09-09T14:18:32;5.80;;;4.60;;
17488;SDS011;8861;52.644;4.734;2022-09-09T14:21:00;6.30;;;5.07;;
17488;SDS011;8861;52.644;4.734;2022-09-09T14:23:27;6.97;;;5.20;;
17488;SDS011;8861;52.644;4.734;2022-09-09T14:25:54;7.57;;;6.17;;
17488;SDS011;8861;52.644;4.734;2022-09-09T14:28:23;8.57;;;5.80;;
17488;SDS011;8861;52.644;4.734;2022-09-09T14:30:50;8.00;;;5.87;;
17488;SDS011;8861;52.644;4.734;2022-09-09T14:33:17;7.63;;;5.80;;
17488;SDS011;8861;52.644;4.734;2022-09-09T14:35:44;7.03;;;5.77;;
17488;SDS011;8861;52.644;4.734;2022-09-09T14:38:11;9.77;;;5.87;;
17488;SDS011;8861;52.644;4.734;2022-09-09T14:40:39;7.67;;;5.53;;
17488;SDS011;8861;52.644;4.734;2022-09-09T14:43:06;7.70;;;5.40;;
17488;SDS011;8861;52.644;4.734;2022-09-09T14:45:35;6.13;;;5.40;;
17488;SDS011;8861;52.644;4.734;2022-09-09T14:48:03;6.50;;;5.00;;
17488;SDS011;8861;52.644;4.734;2022-09-09T14:50:30;6.07;;;4.33;;
17488;SDS011;8861;52.644;4.734;2022-09-09T14:52:57;5.07;;;4.03;;
17488;SDS011;8861;52.644;4.734;2022-09-09T14:55:23;4.67;;;3.43;;
17488;SDS011;8861;52.644;4.734;2022-09-09T14:57:53;4.13;;;3.47;;
17488;SDS011;8861;52.644;4.734;2022-09-09T15:00:20;3.43;;;2.80;;
17488;SDS011;8861;52.644;4.734;2022-09-09T15:02:48;6.07;;;2.90;;
17488;SDS011;8861;52.644;4.734;2022-09-09T15:05:18;3.90;;;2.90;;
17488;SDS011;8861;52.644;4.734;2022-09-09T15:07:45;3.57;;;2.93;;
17488;SDS011;8861;52.644;4.734;2022-09-09T15:10:12;4.87;;;3.10;;
17488;SDS011;8861;52.644;4.734;2022-09-09T15:12:39;3.27;;;2.70;;
17488;SDS011;8861;52.644;4.734;2022-09-09T15:15:07;5.17;;;2.83;;
17488;SDS011;8861;52.644;4.734;2022-09-09T15:17:35;4.27;;;3.10;;
17488;SDS011;8861;52.644;4.734;2022-09-09T15:20:03;4.00;;;3.17;;
17488;SDS011;8861;52.644;4.734;2022-09-09T15:22:31;4.80;;;3.13;;